sensor_id;sensor_type;location;lat;lon;timestamp;P1;durP1;ratioP1;P2;durP2;ratioP2
62832;SDS011;48891;49.220;6.920;2023-10-09T00:00:17;36.97;;;26.30;;
62832;SDS011;48891;49.220;6.920;2023-10-09T00:02:42;36.60;;;26.67;;
62832;SDS011;48891;49.220;6.920;2023-10-09T00:05:08;37.40;;;26.10;;
62832;SDS011;48891;49.220;6.920;2023-10-09T00:07:33;38.78;;;25.95;;
62832;SDS011;48891;49.220;6.920;2023-10-09T00:09:58;38.10;;;25.70;;
62832;SDS011;48891;49.220;6.920;2023-10-09T00:12:23;40.83;;;26.95;;
62832;SDS011;48891;49.220;6.920;2023-10-09T00:14:48;39.70;;;27.63;;
62832;SDS011;48891;49.220;6.920;2023-10-09T00:17:15;37.05;;;25.40;;
62832;SDS011;48891;49.220;6.920;2023-10-09T00:19:40;39.88;;;26.80;;
62832;SDS011;48891;49.220;6.920;2023-10-09T00:22:05;36.25;;;25.75;;
62832;SDS011;48891;49.220;6.920;2023-10-09T00:24:33;39.83;;;27.17;;
62832;SDS011;48891;49.220;6.920;2023-10-09T00:26:58;40.17;;;26.63;;
62832;SDS011;48891;49.220;6.920;2023-10-09T00:29:23;38.30;;;25.75;;
62832;SDS011;48891;49.220;6.920;2023-10-09T00:31:54;34.58;;;25.42;;
62832;SDS011;48891;49.220;6.920;2023-10-09T00:34:19;41.97;;;26.95;;
62832;SDS011;48891;49.220;6.920;2023-10-09T00:36:48;37.45;;;25.13;;
62832;SDS011;48891;49.220;6.920;2023-10-09T00:39:13;36.00;;;25.42;;
62832;SDS011;48891;49.220;6.920;2023-10-09T00:41:38;38.25;;;26.48;;
62832;SDS011;48891;49.220;6.920;2023-10-09T00:44:04;36.15;;;25.55;;
62832;SDS011;48891;49.220;6.920;2023-10-09T00:46:29;37.10;;;26.23;;
62832;SDS011;48891;49.220;6.920;2023-10-09T00:48:55;40.28;;;26.13;;
62832;SDS011;48891;49.220;6.920;2023-10-09T00:51:21;38.65;;;26.33;;
62832;SDS011;48891;49.220;6.920;2023-10-09T00:53:48;39.42;;;26.83;;
62832;SDS011;48891;49.220;6.920;2023-10-09T00:56:13;38.13;;;25.73;;
62832;SDS011;48891;49.220;6.920;2023-10-09T00:58:38;37.30;;;25.88;;
62832;SDS011;48891;49.220;6.920;2023-10-09T01:01:03;38.23;;;26.03;;
62832;SDS011;48891;49.220;6.920;2023-10-09T01:03:29;38.50;;;26.38;;
62832;SDS011;48891;49.220;6.920;2023-10-09T01:05:55;37.13;;;25.52;;
62832;SDS011;48891;49.220;6.920;2023-10-09T01:08:21;38.53;;;26.05;;
62832;SDS011;48891;49.220;6.920;2023-10-09T01:10:46;39.05;;;26.88;;
62832;SDS011;48891;49.220;6.920;2023-10-09T01:13:11;36.05;;;25.55;;
62832;SDS011;48891;49.220;6.920;2023-10-09T01:15:37;39.40;;;26.88;;
62832;SDS011;48891;49.220;6.920;2023-10-09T01:18:02;39.07;;;26.30;;
62832;SDS011;48891;49.220;6.920;2023-10-09T01:20:27;36.17;;;25.65;;
62832;SDS011;48891;49.220;6.920;2023-10-09T01:22:52;35.45;;;25.30;;
62832;SDS011;48891;49.220;6.920;2023-10-09T01:25:17;37.45;;;25.70;;
62832;SDS011;48891;49.220;6.920;2023-10-09T01:27:43;36.88;;;24.83;;
62832;SDS011;48891;49.220;6.920;2023-10-09T01:30:08;39.83;;;26.00;;
62832;SDS011;48891;49.220;6.920;2023-10-09T01:32:33;40.72;;;25.40;;
62832;SDS011;48891;49.220;6.920;2023-10-09T01:34:58;35.50;;;24.35;;
62832;SDS011;48891;49.220;6.920;2023-10-09T01:37:23;37.30;;;25.55;;
62832;SDS011;48891;49.220;6.920;2023-10-09T01:39:49;35.15;;;25.17;;
62832;SDS011;48891;49.220;6.920;2023-10-09T01:42:14;37.55;;;25.67;;
62832;SDS011;48891;49.220;6.920;2023-10-09T01:44:40;38.50;;;26.15;;
62832;SDS011;48891;49.220;6.920;2023-10-09T01:47:05;35.53;;;24.98;;
62832;SDS011;48891;49.220;6.920;2023-10-09T01:49:30;37.88;;;26.40;;
62832;SDS011;48891;49.220;6.920;2023-10-09T01:51:56;37.72;;;25.95;;
62832;SDS011;48891;49.220;6.920;2023-10-09T01:54:21;38.85;;;26.63;;
62832;SDS011;48891;49.220;6.920;2023-10-09T01:56:46;34.33;;;24.02;;
62832;SDS011;48891;49.220;6.920;2023-10-09T01:59:11;36.00;;;24.70;;
62832;SDS011;48891;49.220;6.920;2023-10-09T02:01:36;38.38;;;25.85;;
62832;SDS011;48891;49.220;6.920;2023-10-09T02:04:01;36.60;;;25.33;;
62832;SDS011;48891;49.220;6.920;2023-10-09T02:06:26;36.33;;;25.13;;
62832;SDS011;48891;49.220;6.920;2023-10-09T02:08:52;36.28;;;24.77;;
62832;SDS011;48891;49.220;6.920;2023-10-09T02:11:17;35.90;;;24.48;;
62832;SDS011;48891;49.220;6.920;2023-10-09T02:13:43;35.80;;;24.13;;
62832;SDS011;48891;49.220;6.920;2023-10-09T02:16:08;35.17;;;24.27;;
62832;SDS011;48891;49.220;6.920;2023-10-09T02:18:33;36.05;;;23.25;;
62832;SDS011;48891;49.220;6.920;2023-10-09T02:23:23;34.47;;;22.73;;
62832;SDS011;48891;49.220;6.920;2023-10-09T02:25:48;35.50;;;23.75;;
62832;SDS011;48891;49.220;6.920;2023-10-09T02:28:13;36.95;;;23.98;;
62832;SDS011;48891;49.220;6.920;2023-10-09T02:30:38;38.47;;;25.13;;
62832;SDS011;48891;49.220;6.920;2023-10-09T02:33:03;35.42;;;23.85;;
62832;SDS011;48891;49.220;6.920;2023-10-09T02:35:28;36.63;;;25.20;;
62832;SDS011;48891;49.220;6.920;2023-10-09T02:37:56;38.15;;;24.88;;
62832;SDS011;48891;49.220;6.920;2023-10-09T02:40:21;35.83;;;24.70;;
62832;SDS011;48891;49.220;6.920;2023-10-09T02:42:46;35.00;;;24.52;;
62832;SDS011;48891;49.220;6.920;2023-10-09T02:45:12;36.97;;;23.50;;
62832;SDS011;48891;49.220;6.920;2023-10-09T02:47:37;36.33;;;23.73;;
62832;SDS011;48891;49.220;6.920;2023-10-09T02:50:02;36.55;;;24.08;;
62832;SDS011;48891;49.220;6.920;2023-10-09T02:52:27;34.88;;;23.52;;
62832;SDS011;48891;49.220;6.920;2023-10-09T02:54:53;33.17;;;23.13;;
62832;SDS011;48891;49.220;6.920;2023-10-09T02:57:18;34.85;;;23.52;;
62832;SDS011;48891;49.220;6.920;2023-10-09T02:59:43;32.88;;;22.50;;
62832;SDS011;48891;49.220;6.920;2023-10-09T03:02:08;33.72;;;23.10;;
62832;SDS011;48891;49.220;6.920;2023-10-09T03:04:33;35.78;;;22.92;;
62832;SDS011;48891;49.220;6.920;2023-10-09T03:06:59;35.50;;;23.43;;
62832;SDS011;48891;49.220;6.920;2023-10-09T03:09:24;33.13;;;22.73;;
62832;SDS011;48891;49.220;6.920;2023-10-09T03:11:49;37.50;;;23.50;;
62832;SDS011;48891;49.220;6.920;2023-10-09T03:14:14;34.67;;;23.30;;
62832;SDS011;48891;49.220;6.920;2023-10-09T03:16:39;36.53;;;23.67;;
62832;SDS011;48891;49.220;6.920;2023-10-09T03:19:05;34.10;;;22.63;;
62832;SDS011;48891;49.220;6.920;2023-10-09T03:21:30;32.97;;;22.42;;
62832;SDS011;48891;49.220;6.920;2023-10-09T03:23:55;35.38;;;22.98;;
62832;SDS011;48891;49.220;6.920;2023-10-09T03:26:20;32.17;;;22.00;;
62832;SDS011;48891;49.220;6.920;2023-10-09T03:28:48;35.05;;;23.73;;
62832;SDS011;48891;49.220;6.920;2023-10-09T03:31:14;32.70;;;21.88;;
62832;SDS011;48891;49.220;6.920;2023-10-09T03:33:39;34.28;;;22.75;;
62832;SDS011;48891;49.220;6.920;2023-10-09T03:36:04;35.85;;;23.08;;
62832;SDS011;48891;49.220;6.920;2023-10-09T03:38:29;35.97;;;22.37;;
62832;SDS011;48891;49.220;6.920;2023-10-09T03:40:55;32.25;;;21.83;;
62832;SDS011;48891;49.220;6.920;2023-10-09T03:43:20;33.75;;;22.38;;
62832;SDS011;48891;49.220;6.920;2023-10-09T03:45:45;31.07;;;21.17;;
62832;SDS011;48891;49.220;6.920;2023-10-09T03:48:10;35.03;;;22.15;;
62832;SDS011;48891;49.220;6.920;2023-10-09T03:50:35;31.27;;;21.30;;
62832;SDS011;48891;49.220;6.920;2023-10-09T03:53:01;31.05;;;20.70;;
62832;SDS011;48891;49.220;6.920;2023-10-09T03:55:26;35.85;;;23.63;;
62832;SDS011;48891;49.220;6.920;2023-10-09T03:57:51;32.23;;;21.93;;
62832;SDS011;48891;49.220;6.920;2023-10-09T04:00:16;31.83;;;21.55;;
62832;SDS011;48891;49.220;6.920;2023-10-09T04:02:41;33.40;;;21.70;;
62832;SDS011;48891;49.220;6.920;2023-10-09T04:05:07;32.40;;;21.45;;
62832;SDS011;48891;49.220;6.920;2023-10-09T04:07:32;30.43;;;21.40;;
62832;SDS011;48891;49.220;6.920;2023-10-09T04:09:57;32.13;;;21.80;;
62832;SDS011;48891;49.220;6.920;2023-10-09T04:12:22;34.17;;;22.15;;
62832;SDS011;48891;49.220;6.920;2023-10-09T04:14:47;31.38;;;21.30;;
62832;SDS011;48891;49.220;6.920;2023-10-09T04:17:12;32.20;;;22.15;;
62832;SDS011;48891;49.220;6.920;2023-10-09T04:19:37;31.73;;;21.27;;
62832;SDS011;48891;49.220;6.920;2023-10-09T04:22:02;30.85;;;20.75;;
62832;SDS011;48891;49.220;6.920;2023-10-09T04:24:27;32.08;;;20.98;;
62832;SDS011;48891;49.220;6.920;2023-10-09T04:26:53;29.67;;;21.30;;
62832;SDS011;48891;49.220;6.920;2023-10-09T04:29:18;32.70;;;21.63;;
62832;SDS011;48891;49.220;6.920;2023-10-09T04:31:43;30.42;;;20.92;;
62832;SDS011;48891;49.220;6.920;2023-10-09T04:34:08;29.75;;;19.73;;
62832;SDS011;48891;49.220;6.920;2023-10-09T04:36:33;32.42;;;21.80;;
62832;SDS011;48891;49.220;6.920;2023-10-09T04:38:58;30.55;;;19.83;;
62832;SDS011;48891;49.220;6.920;2023-10-09T04:41:23;30.88;;;20.65;;
62832;SDS011;48891;49.220;6.920;2023-10-09T04:43:48;30.38;;;20.30;;
62832;SDS011;48891;49.220;6.920;2023-10-09T04:46:13;30.30;;;20.45;;
62832;SDS011;48891;49.220;6.920;2023-10-09T04:48:39;29.77;;;21.30;;
62832;SDS011;48891;49.220;6.920;2023-10-09T04:51:04;29.80;;;20.02;;
62832;SDS011;48891;49.220;6.920;2023-10-09T04:53:29;30.08;;;20.38;;
62832;SDS011;48891;49.220;6.920;2023-10-09T04:55:55;31.77;;;20.77;;
62832;SDS011;48891;49.220;6.920;2023-10-09T04:58:23;28.30;;;18.90;;
62832;SDS011;48891;49.220;6.920;2023-10-09T05:00:49;28.73;;;20.00;;
62832;SDS011;48891;49.220;6.920;2023-10-09T05:03:14;29.42;;;19.35;;
62832;SDS011;48891;49.220;6.920;2023-10-09T05:05:39;30.20;;;20.75;;
62832;SDS011;48891;49.220;6.920;2023-10-09T05:08:05;30.08;;;20.13;;
62832;SDS011;48891;49.220;6.920;2023-10-09T05:10:30;28.83;;;19.85;;
62832;SDS011;48891;49.220;6.920;2023-10-09T05:12:55;29.02;;;19.95;;
62832;SDS011;48891;49.220;6.920;2023-10-09T05:15:20;29.35;;;19.58;;
62832;SDS011;48891;49.220;6.920;2023-10-09T05:17:45;30.52;;;20.38;;
62832;SDS011;48891;49.220;6.920;2023-10-09T05:20:10;29.35;;;19.52;;
62832;SDS011;48891;49.220;6.920;2023-10-09T05:22:35;27.23;;;19.07;;
62832;SDS011;48891;49.220;6.920;2023-10-09T05:25:00;27.65;;;19.20;;
62832;SDS011;48891;49.220;6.920;2023-10-09T05:27:25;28.40;;;18.70;;
62832;SDS011;48891;49.220;6.920;2023-10-09T05:29:51;27.85;;;19.10;;
62832;SDS011;48891;49.220;6.920;2023-10-09T05:32:16;30.00;;;19.92;;
62832;SDS011;48891;49.220;6.920;2023-10-09T05:34:42;28.17;;;18.43;;
62832;SDS011;48891;49.220;6.920;2023-10-09T05:37:07;28.15;;;19.35;;
62832;SDS011;48891;49.220;6.920;2023-10-09T05:39:32;29.02;;;18.77;;
62832;SDS011;48891;49.220;6.920;2023-10-09T05:41:57;30.08;;;19.40;;
62832;SDS011;48891;49.220;6.920;2023-10-09T05:44:22;32.03;;;20.08;;
62832;SDS011;48891;49.220;6.920;2023-10-09T05:46:47;27.80;;;19.13;;
62832;SDS011;48891;49.220;6.920;2023-10-09T05:49:12;27.05;;;18.65;;
62832;SDS011;48891;49.220;6.920;2023-10-09T05:51:38;27.65;;;19.15;;
62832;SDS011;48891;49.220;6.920;2023-10-09T05:54:03;31.67;;;20.60;;
62832;SDS011;48891;49.220;6.920;2023-10-09T05:56:28;29.13;;;19.30;;
62832;SDS011;48891;49.220;6.920;2023-10-09T05:58:53;26.35;;;18.63;;
62832;SDS011;48891;49.220;6.920;2023-10-09T06:01:18;29.30;;;18.90;;
62832;SDS011;48891;49.220;6.920;2023-10-09T06:03:43;25.92;;;18.45;;
62832;SDS011;48891;49.220;6.920;2023-10-09T06:06:08;27.25;;;19.17;;
62832;SDS011;48891;49.220;6.920;2023-10-09T06:08:33;25.58;;;17.85;;
62832;SDS011;48891;49.220;6.920;2023-10-09T06:10:59;28.10;;;19.42;;
62832;SDS011;48891;49.220;6.920;2023-10-09T06:13:24;27.23;;;19.23;;
62832;SDS011;48891;49.220;6.920;2023-10-09T06:15:49;28.10;;;18.35;;
62832;SDS011;48891;49.220;6.920;2023-10-09T06:18:14;29.33;;;19.48;;
62832;SDS011;48891;49.220;6.920;2023-10-09T06:20:39;28.40;;;19.17;;
62832;SDS011;48891;49.220;6.920;2023-10-09T06:23:04;26.45;;;18.67;;
62832;SDS011;48891;49.220;6.920;2023-10-09T06:25:29;25.60;;;17.67;;
62832;SDS011;48891;49.220;6.920;2023-10-09T06:27:54;26.85;;;18.52;;
62832;SDS011;48891;49.220;6.920;2023-10-09T06:30:20;26.52;;;17.58;;
62832;SDS011;48891;49.220;6.920;2023-10-09T06:32:45;27.80;;;18.73;;
62832;SDS011;48891;49.220;6.920;2023-10-09T06:35:10;27.63;;;18.88;;
62832;SDS011;48891;49.220;6.920;2023-10-09T06:37:35;27.98;;;19.10;;
62832;SDS011;48891;49.220;6.920;2023-10-09T06:40:00;26.63;;;18.60;;
62832;SDS011;48891;49.220;6.920;2023-10-09T06:42:26;27.55;;;19.27;;
62832;SDS011;48891;49.220;6.920;2023-10-09T06:44:51;27.27;;;18.88;;
62832;SDS011;48891;49.220;6.920;2023-10-09T06:47:16;28.20;;;19.13;;
62832;SDS011;48891;49.220;6.920;2023-10-09T06:49:41;27.40;;;18.50;;
62832;SDS011;48891;49.220;6.920;2023-10-09T06:52:06;26.03;;;18.07;;
62832;SDS011;48891;49.220;6.920;2023-10-09T06:54:32;27.58;;;19.17;;
62832;SDS011;48891;49.220;6.920;2023-10-09T06:56:57;28.07;;;19.63;;
62832;SDS011;48891;49.220;6.920;2023-10-09T06:59:22;28.15;;;19.45;;
62832;SDS011;48891;49.220;6.920;2023-10-09T07:01:48;25.37;;;19.37;;
62832;SDS011;48891;49.220;6.920;2023-10-09T07:04:13;29.73;;;19.92;;
62832;SDS011;48891;49.220;6.920;2023-10-09T07:06:38;25.83;;;18.42;;
62832;SDS011;48891;49.220;6.920;2023-10-09T07:09:03;28.33;;;19.50;;
62832;SDS011;48891;49.220;6.920;2023-10-09T07:11:29;27.57;;;18.87;;
62832;SDS011;48891;49.220;6.920;2023-10-09T07:13:56;28.23;;;18.63;;
62832;SDS011;48891;49.220;6.920;2023-10-09T07:16:22;26.20;;;19.08;;
62832;SDS011;48891;49.220;6.920;2023-10-09T07:18:47;28.92;;;18.88;;
62832;SDS011;48891;49.220;6.920;2023-10-09T07:21:13;28.70;;;19.42;;
62832;SDS011;48891;49.220;6.920;2023-10-09T07:23:38;27.77;;;19.55;;
62832;SDS011;48891;49.220;6.920;2023-10-09T07:26:03;28.67;;;19.90;;
62832;SDS011;48891;49.220;6.920;2023-10-09T07:28:29;27.17;;;18.83;;
62832;SDS011;48891;49.220;6.920;2023-10-09T07:30:54;25.38;;;18.20;;
62832;SDS011;48891;49.220;6.920;2023-10-09T07:33:19;27.73;;;19.00;;
62832;SDS011;48891;49.220;6.920;2023-10-09T07:35:45;27.40;;;19.02;;
62832;SDS011;48891;49.220;6.920;2023-10-09T07:38:18;26.10;;;19.20;;
62832;SDS011;48891;49.220;6.920;2023-10-09T07:40:43;30.13;;;20.83;;
62832;SDS011;48891;49.220;6.920;2023-10-09T07:43:08;28.77;;;20.35;;
62832;SDS011;48891;49.220;6.920;2023-10-09T07:45:35;28.23;;;19.42;;
62832;SDS011;48891;49.220;6.920;2023-10-09T07:48:00;28.92;;;19.10;;
62832;SDS011;48891;49.220;6.920;2023-10-09T07:50:26;27.67;;;18.83;;
62832;SDS011;48891;49.220;6.920;2023-10-09T07:52:51;27.15;;;18.63;;
62832;SDS011;48891;49.220;6.920;2023-10-09T07:55:16;28.20;;;19.77;;
62832;SDS011;48891;49.220;6.920;2023-10-09T07:57:41;29.42;;;20.55;;
62832;SDS011;48891;49.220;6.920;2023-10-09T08:00:07;27.60;;;19.70;;
62832;SDS011;48891;49.220;6.920;2023-10-09T08:02:32;26.40;;;19.40;;
62832;SDS011;48891;49.220;6.920;2023-10-09T08:05:00;26.43;;;18.63;;
62832;SDS011;48891;49.220;6.920;2023-10-09T08:07:26;27.15;;;18.23;;
62832;SDS011;48891;49.220;6.920;2023-10-09T08:09:51;27.75;;;20.58;;
62832;SDS011;48891;49.220;6.920;2023-10-09T08:12:16;28.73;;;19.35;;
62832;SDS011;48891;49.220;6.920;2023-10-09T08:14:42;25.80;;;18.75;;
62832;SDS011;48891;49.220;6.920;2023-10-09T08:17:07;27.00;;;18.95;;
62832;SDS011;48891;49.220;6.920;2023-10-09T08:19:32;27.65;;;18.90;;
62832;SDS011;48891;49.220;6.920;2023-10-09T08:21:57;27.85;;;19.10;;
62832;SDS011;48891;49.220;6.920;2023-10-09T08:24:22;26.65;;;19.02;;
62832;SDS011;48891;49.220;6.920;2023-10-09T08:26:48;27.25;;;18.48;;
62832;SDS011;48891;49.220;6.920;2023-10-09T08:29:13;26.25;;;18.63;;
62832;SDS011;48891;49.220;6.920;2023-10-09T08:31:38;28.90;;;19.17;;
62832;SDS011;48891;49.220;6.920;2023-10-09T08:34:03;27.00;;;19.48;;
62832;SDS011;48891;49.220;6.920;2023-10-09T08:36:28;27.65;;;18.90;;
62832;SDS011;48891;49.220;6.920;2023-10-09T08:38:57;25.35;;;18.55;;
62832;SDS011;48891;49.220;6.920;2023-10-09T08:41:22;27.52;;;19.17;;
62832;SDS011;48891;49.220;6.920;2023-10-09T08:43:48;26.27;;;18.27;;
62832;SDS011;48891;49.220;6.920;2023-10-09T08:46:14;26.90;;;18.75;;
62832;SDS011;48891;49.220;6.920;2023-10-09T08:48:39;25.63;;;19.20;;
62832;SDS011;48891;49.220;6.920;2023-10-09T08:51:05;26.65;;;18.60;;
62832;SDS011;48891;49.220;6.920;2023-10-09T08:53:30;25.20;;;18.42;;
62832;SDS011;48891;49.220;6.920;2023-10-09T08:55:55;26.90;;;19.02;;
62832;SDS011;48891;49.220;6.920;2023-10-09T08:58:20;27.08;;;18.58;;
62832;SDS011;48891;49.220;6.920;2023-10-09T09:00:45;26.38;;;19.08;;
62832;SDS011;48891;49.220;6.920;2023-10-09T09:03:11;25.92;;;18.67;;
62832;SDS011;48891;49.220;6.920;2023-10-09T09:05:36;25.80;;;18.45;;
62832;SDS011;48891;49.220;6.920;2023-10-09T09:08:02;27.23;;;18.92;;
62832;SDS011;48891;49.220;6.920;2023-10-09T09:10:27;24.93;;;18.20;;
62832;SDS011;48891;49.220;6.920;2023-10-09T09:12:53;25.70;;;18.60;;
62832;SDS011;48891;49.220;6.920;2023-10-09T09:15:18;28.00;;;18.65;;
62832;SDS011;48891;49.220;6.920;2023-10-09T09:17:43;25.35;;;18.15;;
62832;SDS011;48891;49.220;6.920;2023-10-09T09:22:52;23.63;;;17.92;;
62832;SDS011;48891;49.220;6.920;2023-10-09T09:25:17;25.27;;;17.35;;
62832;SDS011;48891;49.220;6.920;2023-10-09T09:27:45;25.92;;;18.88;;
62832;SDS011;48891;49.220;6.920;2023-10-09T09:32:36;24.63;;;17.58;;
62832;SDS011;48891;49.220;6.920;2023-10-09T09:35:01;24.98;;;18.17;;
62832;SDS011;48891;49.220;6.920;2023-10-09T09:37:27;25.50;;;18.42;;
62832;SDS011;48891;49.220;6.920;2023-10-09T09:39:53;25.13;;;18.10;;
62832;SDS011;48891;49.220;6.920;2023-10-09T09:42:18;25.23;;;17.58;;
62832;SDS011;48891;49.220;6.920;2023-10-09T09:44:43;23.92;;;18.02;;
62832;SDS011;48891;49.220;6.920;2023-10-09T09:47:10;24.52;;;17.55;;
62832;SDS011;48891;49.220;6.920;2023-10-09T09:49:36;25.10;;;17.85;;
62832;SDS011;48891;49.220;6.920;2023-10-09T09:52:03;23.60;;;17.25;;
62832;SDS011;48891;49.220;6.920;2023-10-09T09:54:28;27.45;;;18.98;;
62832;SDS011;48891;49.220;6.920;2023-10-09T09:56:53;25.25;;;18.15;;
62832;SDS011;48891;49.220;6.920;2023-10-09T09:59:19;23.42;;;17.60;;
62832;SDS011;48891;49.220;6.920;2023-10-09T10:01:49;24.33;;;17.15;;
62832;SDS011;48891;49.220;6.920;2023-10-09T10:04:15;24.92;;;16.83;;
62832;SDS011;48891;49.220;6.920;2023-10-09T10:06:43;25.60;;;17.45;;
62832;SDS011;48891;49.220;6.920;2023-10-09T10:09:09;26.70;;;18.25;;
62832;SDS011;48891;49.220;6.920;2023-10-09T10:11:46;24.83;;;17.70;;
62832;SDS011;48891;49.220;6.920;2023-10-09T10:14:12;22.73;;;16.98;;
62832;SDS011;48891;49.220;6.920;2023-10-09T10:16:59;24.08;;;17.88;;
62832;SDS011;48891;49.220;6.920;2023-10-09T10:19:24;25.10;;;17.25;;
62832;SDS011;48891;49.220;6.920;2023-10-09T10:21:49;22.33;;;16.63;;
62832;SDS011;48891;49.220;6.920;2023-10-09T10:24:47;24.73;;;17.17;;
62832;SDS011;48891;49.220;6.920;2023-10-09T10:29:37;24.58;;;16.35;;
62832;SDS011;48891;49.220;6.920;2023-10-09T10:32:02;22.10;;;16.77;;
62832;SDS011;48891;49.220;6.920;2023-10-09T10:34:51;22.20;;;16.65;;
62832;SDS011;48891;49.220;6.920;2023-10-09T10:37:13;22.95;;;16.38;;
62832;SDS011;48891;49.220;6.920;2023-10-09T10:39:46;21.65;;;15.98;;
62832;SDS011;48891;49.220;6.920;2023-10-09T10:42:14;24.38;;;16.95;;
62832;SDS011;48891;49.220;6.920;2023-10-09T10:44:39;21.88;;;15.68;;
62832;SDS011;48891;49.220;6.920;2023-10-09T10:47:05;23.08;;;17.20;;
62832;SDS011;48891;49.220;6.920;2023-10-09T10:49:30;21.63;;;16.23;;
62832;SDS011;48891;49.220;6.920;2023-10-09T10:51:55;23.13;;;16.85;;
62832;SDS011;48891;49.220;6.920;2023-10-09T10:54:21;22.92;;;16.55;;
62832;SDS011;48891;49.220;6.920;2023-10-09T10:56:47;21.60;;;15.63;;
62832;SDS011;48891;49.220;6.920;2023-10-09T10:59:12;21.42;;;15.35;;
62832;SDS011;48891;49.220;6.920;2023-10-09T11:01:38;23.23;;;16.70;;
62832;SDS011;48891;49.220;6.920;2023-10-09T11:04:10;20.77;;;16.23;;
62832;SDS011;48891;49.220;6.920;2023-10-09T11:06:35;22.38;;;16.00;;
62832;SDS011;48891;49.220;6.920;2023-10-09T11:09:01;23.30;;;16.42;;
62832;SDS011;48891;49.220;6.920;2023-10-09T11:11:26;21.55;;;15.18;;
62832;SDS011;48891;49.220;6.920;2023-10-09T11:13:51;21.00;;;15.65;;
62832;SDS011;48891;49.220;6.920;2023-10-09T11:16:17;20.85;;;15.45;;
62832;SDS011;48891;49.220;6.920;2023-10-09T11:18:42;21.75;;;15.80;;
62832;SDS011;48891;49.220;6.920;2023-10-09T11:21:07;20.53;;;15.07;;
62832;SDS011;48891;49.220;6.920;2023-10-09T11:23:33;22.42;;;16.10;;
62832;SDS011;48891;49.220;6.920;2023-10-09T11:25:58;20.50;;;15.13;;
62832;SDS011;48891;49.220;6.920;2023-10-09T11:28:24;20.80;;;14.20;;
62832;SDS011;48891;49.220;6.920;2023-10-09T11:30:49;20.90;;;14.73;;
62832;SDS011;48891;49.220;6.920;2023-10-09T11:33:14;22.10;;;14.82;;
62832;SDS011;48891;49.220;6.920;2023-10-09T11:35:40;19.60;;;15.18;;
62832;SDS011;48891;49.220;6.920;2023-10-09T11:38:05;20.55;;;15.55;;
62832;SDS011;48891;49.220;6.920;2023-10-09T11:40:31;21.17;;;15.35;;
62832;SDS011;48891;49.220;6.920;2023-10-09T11:42:59;21.90;;;15.50;;
62832;SDS011;48891;49.220;6.920;2023-10-09T11:45:25;21.55;;;15.48;;
62832;SDS011;48891;49.220;6.920;2023-10-09T11:47:51;20.75;;;15.18;;
62832;SDS011;48891;49.220;6.920;2023-10-09T11:50:16;19.48;;;14.38;;
62832;SDS011;48891;49.220;6.920;2023-10-09T11:52:54;20.25;;;15.00;;
62832;SDS011;48891;49.220;6.920;2023-10-09T11:55:19;21.23;;;15.90;;
62832;SDS011;48891;49.220;6.920;2023-10-09T11:57:45;21.52;;;14.90;;
62832;SDS011;48891;49.220;6.920;2023-10-09T12:00:10;19.15;;;14.55;;
62832;SDS011;48891;49.220;6.920;2023-10-09T12:02:35;18.90;;;13.93;;
62832;SDS011;48891;49.220;6.920;2023-10-09T12:05:00;20.90;;;14.57;;
62832;SDS011;48891;49.220;6.920;2023-10-09T12:07:25;19.38;;;14.48;;
62832;SDS011;48891;49.220;6.920;2023-10-09T12:09:51;19.33;;;14.43;;
62832;SDS011;48891;49.220;6.920;2023-10-09T12:12:16;20.33;;;14.65;;
62832;SDS011;48891;49.220;6.920;2023-10-09T12:14:41;18.60;;;14.20;;
62832;SDS011;48891;49.220;6.920;2023-10-09T12:17:07;19.33;;;14.43;;
62832;SDS011;48891;49.220;6.920;2023-10-09T12:19:33;19.42;;;14.57;;
62832;SDS011;48891;49.220;6.920;2023-10-09T12:21:58;17.77;;;13.88;;
62832;SDS011;48891;49.220;6.920;2023-10-09T12:24:23;19.10;;;13.93;;
62832;SDS011;48891;49.220;6.920;2023-10-09T12:26:48;19.08;;;14.57;;
62832;SDS011;48891;49.220;6.920;2023-10-09T12:29:13;18.67;;;14.25;;
62832;SDS011;48891;49.220;6.920;2023-10-09T12:31:38;16.98;;;13.82;;
62832;SDS011;48891;49.220;6.920;2023-10-09T12:34:04;19.48;;;14.27;;
62832;SDS011;48891;49.220;6.920;2023-10-09T12:36:29;18.08;;;13.82;;
62832;SDS011;48891;49.220;6.920;2023-10-09T12:38:54;19.33;;;14.38;;
62832;SDS011;48891;49.220;6.920;2023-10-09T12:41:19;19.27;;;14.13;;
62832;SDS011;48891;49.220;6.920;2023-10-09T12:43:44;18.70;;;13.95;;
62832;SDS011;48891;49.220;6.920;2023-10-09T12:46:09;19.67;;;14.00;;
62832;SDS011;48891;49.220;6.920;2023-10-09T12:48:34;18.70;;;14.00;;
62832;SDS011;48891;49.220;6.920;2023-10-09T12:50:59;16.83;;;13.47;;
62832;SDS011;48891;49.220;6.920;2023-10-09T12:53:25;19.13;;;14.32;;
62832;SDS011;48891;49.220;6.920;2023-10-09T12:55:50;18.92;;;14.07;;
62832;SDS011;48891;49.220;6.920;2023-10-09T12:58:15;17.50;;;13.48;;
62832;SDS011;48891;49.220;6.920;2023-10-09T13:00:41;20.27;;;14.23;;
62832;SDS011;48891;49.220;6.920;2023-10-09T13:03:06;17.50;;;13.05;;
62832;SDS011;48891;49.220;6.920;2023-10-09T13:05:31;18.23;;;13.25;;
62832;SDS011;48891;49.220;6.920;2023-10-09T13:07:56;18.17;;;12.80;;
62832;SDS011;48891;49.220;6.920;2023-10-09T13:10:23;19.65;;;13.43;;
62832;SDS011;48891;49.220;6.920;2023-10-09T13:12:48;19.25;;;13.60;;
62832;SDS011;48891;49.220;6.920;2023-10-09T13:15:13;18.65;;;12.85;;
62832;SDS011;48891;49.220;6.920;2023-10-09T13:17:39;17.52;;;13.55;;
62832;SDS011;48891;49.220;6.920;2023-10-09T13:20:04;18.17;;;13.13;;
62832;SDS011;48891;49.220;6.920;2023-10-09T13:22:29;18.25;;;13.13;;
62832;SDS011;48891;49.220;6.920;2023-10-09T13:24:55;16.85;;;12.30;;
62832;SDS011;48891;49.220;6.920;2023-10-09T13:27:20;18.88;;;13.93;;
62832;SDS011;48891;49.220;6.920;2023-10-09T13:29:45;17.23;;;13.17;;
62832;SDS011;48891;49.220;6.920;2023-10-09T13:32:10;17.65;;;12.73;;
62832;SDS011;48891;49.220;6.920;2023-10-09T13:34:35;18.17;;;13.57;;
62832;SDS011;48891;49.220;6.920;2023-10-09T13:37:00;16.35;;;12.27;;
62832;SDS011;48891;49.220;6.920;2023-10-09T13:39:25;15.98;;;12.13;;
62832;SDS011;48891;49.220;6.920;2023-10-09T13:41:51;17.80;;;12.40;;
62832;SDS011;48891;49.220;6.920;2023-10-09T13:44:16;17.35;;;12.63;;
62832;SDS011;48891;49.220;6.920;2023-10-09T13:46:42;18.50;;;12.95;;
62832;SDS011;48891;49.220;6.920;2023-10-09T13:49:10;16.60;;;12.52;;
62832;SDS011;48891;49.220;6.920;2023-10-09T13:51:36;16.30;;;12.48;;
62832;SDS011;48891;49.220;6.920;2023-10-09T13:54:01;17.55;;;12.45;;
62832;SDS011;48891;49.220;6.920;2023-10-09T13:56:26;17.83;;;12.63;;
62832;SDS011;48891;49.220;6.920;2023-10-09T13:58:51;15.35;;;11.98;;
62832;SDS011;48891;49.220;6.920;2023-10-09T14:01:17;18.23;;;12.65;;
62832;SDS011;48891;49.220;6.920;2023-10-09T14:03:42;17.13;;;11.82;;
62832;SDS011;48891;49.220;6.920;2023-10-09T14:06:07;16.63;;;12.10;;
62832;SDS011;48891;49.220;6.920;2023-10-09T14:08:32;18.10;;;12.57;;
62832;SDS011;48891;49.220;6.920;2023-10-09T14:10:57;17.83;;;11.98;;
62832;SDS011;48891;49.220;6.920;2023-10-09T14:13:22;16.77;;;12.00;;
62832;SDS011;48891;49.220;6.920;2023-10-09T14:15:47;16.33;;;12.43;;
62832;SDS011;48891;49.220;6.920;2023-10-09T14:18:12;15.65;;;11.30;;
62832;SDS011;48891;49.220;6.920;2023-10-09T14:20:38;17.00;;;12.50;;